createdAt,value
2018-09-09T00:03:56.927Z,74.900002
2018-09-09T00:08:59.079Z,75.099998
2018-09-09T00:14:01.437Z,75.599998
2018-09-09T00:19:03.656Z,76.699997
2018-09-09T00:24:06.053Z,76.300003
2018-09-09T00:29:08.241Z,76.400002
2018-09-09T00:34:10.720Z,76.599998
2018-09-09T00:39:12.861Z,76.400002
2018-09-09T00:44:15.155Z,76.800003
2018-09-09T00:49:17.487Z,75.400002
2018-09-09T00:54:19.797Z,75.300003
2018-09-09T00:59:22.063Z,75.5
2018-09-09T01:04:24.296Z,75.699997
2018-09-09T01:09:26.596Z,75.900002
2018-09-09T01:14:28.958Z,75.900002
2018-09-09T01:19:31.180Z,77.099998
2018-09-09T01:24:33.504Z,77.300003
2018-09-09T01:29:35.824Z,76.599998
2018-09-09T01:34:39.341Z,76.099998
2018-09-09T01:39:40.469Z,77.699997
2018-09-09T01:44:42.739Z,77.900002
2018-09-09T01:49:45.019Z,81
2018-09-09T01:54:47.223Z,80.800003
2018-09-09T01:59:49.659Z,78.800003
2018-09-09T02:04:51.919Z,78.900002
2018-09-09T02:09:54.172Z,81
2018-09-09T02:14:56.480Z,80.199997
2018-09-09T02:19:58.697Z,79.300003
2018-09-09T02:25:01.066Z,80.900002
2018-09-09T02:30:03.474Z,80.900002
2018-09-09T02:35:05.654Z,82.800003
2018-09-09T02:40:07.894Z,84
2018-09-09T02:50:12.501Z,85.400002
2018-09-09T02:55:14.771Z,85.800003
2018-09-09T03:00:17.144Z,84.800003
2018-09-09T03:05:19.483Z,83.900002
2018-09-09T03:10:21.676Z,83.099998
2018-09-09T03:15:24.066Z,85.5
2018-09-09T03:20:27.263Z,85.800003
2018-09-09T03:25:28.649Z,86.699997
2018-09-09T03:30:30.871Z,87
2018-09-09T03:35:33.144Z,86.400002
2018-09-09T03:40:35.520Z,86.699997
2018-09-09T03:45:37.665Z,87
2018-09-09T03:50:40.048Z,87.599998
2018-09-09T03:55:42.305Z,88.099998
2018-09-09T04:00:45.832Z,89
2018-09-09T04:05:47.048Z,88.099998
2018-09-09T04:10:49.328Z,87
2018-09-09T04:20:53.783Z,86.800003
2018-09-09T04:25:56.023Z,87.300003
2018-09-09T04:30:58.407Z,86.300003
2018-09-09T04:36:00.731Z,87.300003
2018-09-09T04:41:03.025Z,87.099998
2018-09-09T04:46:05.383Z,85.599998
2018-09-09T04:51:07.603Z,85.800003
2018-09-09T04:56:09.824Z,86.599998
2018-09-09T05:01:12.209Z,86.300003
2018-09-09T05:06:14.422Z,86.099998
2018-09-09T05:11:16.723Z,87.400002
2018-09-09T05:16:19.005Z,87.699997
2018-09-09T05:21:21.321Z,88.5
2018-09-09T05:26:23.666Z,89.5
2018-09-09T05:31:25.900Z,90
2018-09-09T05:36:28.157Z,90.699997
2018-09-09T05:41:30.529Z,90.800003
2018-09-09T05:46:32.782Z,91.300003
2018-09-09T05:51:35.089Z,91.800003
2018-09-09T05:56:37.416Z,92.400002
2018-09-09T06:01:39.702Z,92.599998
2018-09-09T06:06:42.035Z,92.400002
2018-09-09T06:11:44.249Z,89.300003
2018-09-09T06:16:46.545Z,88.800003
2018-09-09T06:21:48.984Z,87.599998
2018-09-09T06:26:52.256Z,87.300003
2018-09-09T06:31:53.552Z,86.099998
2018-09-09T06:36:55.793Z,84.900002
2018-09-09T06:41:58.108Z,83.099998
2018-09-09T06:47:00.359Z,82.300003
2018-09-09T06:52:02.616Z,82.900002
2018-09-09T06:57:04.958Z,82.5
2018-09-09T07:02:07.160Z,81.599998
2018-09-09T07:07:09.528Z,76.5
2018-09-09T07:12:11.734Z,77.099998
2018-09-09T07:17:14.267Z,76.400002
2018-09-09T07:22:16.453Z,74.099998
2018-09-09T07:27:18.649Z,75.599998
2018-09-09T07:32:21.057Z,76.5
2018-09-09T07:37:23.262Z,75.300003
2018-09-09T07:42:25.629Z,75
2018-09-09T07:47:27.877Z,73
2018-09-09T07:52:30.183Z,71
2018-09-09T07:57:32.536Z,71.699997
2018-09-09T08:02:34.768Z,71
2018-09-09T08:07:37.168Z,71.699997
2018-09-09T08:12:39.345Z,70.300003
2018-09-09T08:17:41.644Z,69.900002
2018-09-09T08:22:43.861Z,64.800003
2018-09-09T08:27:46.232Z,60.200001
2018-09-09T08:32:48.528Z,57.400002
2018-09-09T08:37:50.748Z,56.099998
2018-09-09T08:42:53.124Z,57.799999
2018-09-09T08:47:55.446Z,53.299999
2018-09-09T08:52:57.770Z,53.599998
2018-09-09T08:58:00.064Z,56.299999
2018-09-09T09:03:02.320Z,53.400002
2018-09-09T09:08:04.564Z,54.400002
2018-09-09T09:13:07.012Z,54.099998
2018-09-09T09:18:09.100Z,53.400002
2018-09-09T09:23:11.529Z,52.700001
2018-09-09T09:28:13.773Z,53.400002
2018-09-09T09:33:15.956Z,52.700001
2018-09-09T09:38:18.446Z,51.900002
2018-09-09T09:43:21.746Z,50.299999
2018-09-09T09:48:22.943Z,47.900002
2018-09-09T09:53:25.269Z,46.700001
2018-09-09T09:58:27.472Z,50.299999
2018-09-09T10:03:29.850Z,49.400002
2018-09-09T10:08:32.138Z,49
2018-09-09T10:13:34.462Z,51.299999
2018-09-09T10:18:36.720Z,51.900002
2018-09-09T10:23:39.095Z,50.5
2018-09-09T10:28:41.390Z,51.700001
2018-09-09T10:33:43.700Z,50.700001
2018-09-09T10:38:45.817Z,50
2018-09-09T10:43:48.144Z,49.299999
2018-09-09T10:48:50.460Z,50
2018-09-09T10:53:52.834Z,49.799999
2018-09-09T10:58:55.163Z,49.900002
2018-09-09T11:03:57.265Z,49.200001
2018-09-09T11:08:59.632Z,49.400002
2018-09-09T11:14:01.933Z,48.400002
2018-09-09T11:19:04.380Z,48.5
2018-09-09T11:24:06.463Z,49.5
2018-09-09T11:29:08.920Z,49.5
2018-09-09T11:34:11.062Z,49.700001
2018-09-09T11:39:13.404Z,46.900002
2018-09-09T11:44:15.649Z,45.299999
2018-09-09T11:49:17.985Z,44.900002
2018-09-09T11:54:20.282Z,45
2018-09-09T11:59:22.495Z,43.700001
2018-09-09T12:04:24.956Z,46.900002
2018-09-09T12:09:27.250Z,46.599998
2018-09-09T12:14:29.477Z,48.900002
2018-09-09T12:19:31.749Z,46.700001
2018-09-09T12:24:34.194Z,48.299999
2018-09-09T12:29:36.282Z,45.799999
2018-09-09T12:34:38.618Z,45.099998
2018-09-09T12:39:40.926Z,45.5
2018-09-09T12:44:43.270Z,45.299999
2018-09-09T12:49:45.560Z,46.400002
2018-09-09T12:54:47.749Z,42.599998
2018-09-09T12:59:50.130Z,42.400002
2018-09-09T13:04:52.440Z,41.599998
2018-09-09T13:09:54.757Z,43
2018-09-09T13:14:57.007Z,37.900002
2018-09-09T13:19:59.331Z,36.400002
2018-09-09T13:25:01.552Z,34.200001
2018-09-09T13:30:03.879Z,32.700001
2018-09-09T13:35:06.188Z,31.9
2018-09-09T13:40:08.468Z,30.1
2018-09-09T13:45:10.836Z,31.6
2018-09-09T13:50:13.106Z,29.1
2018-09-09T13:55:15.419Z,30.5
2018-09-09T14:00:17.749Z,29.9
2018-09-09T14:05:19.940Z,31.1
2018-09-09T14:10:22.236Z,28.200001
2018-09-09T14:15:24.549Z,27.200001
2018-09-09T14:20:26.838Z,28.799999
2018-09-09T14:25:30.440Z,28.6
2018-09-09T14:30:31.466Z,27.700001
2018-09-09T14:35:33.751Z,28.4
2018-09-09T14:40:36.072Z,27.4
2018-09-09T14:45:38.344Z,27.200001
2018-09-09T14:50:40.602Z,28.299999
2018-09-09T14:55:42.949Z,28.200001
2018-09-09T15:00:45.178Z,28.4
2018-09-09T15:05:47.491Z,28.200001
2018-09-09T15:10:49.777Z,28.299999
2018-09-09T15:15:52.077Z,31
2018-09-09T15:20:54.369Z,29.700001
2018-09-09T15:25:56.689Z,28.799999
2018-09-09T15:30:58.946Z,31.4
2018-09-09T15:36:01.370Z,30.6
2018-09-09T15:41:03.540Z,28.5
2018-09-09T15:46:05.829Z,27.799999
2018-09-09T15:51:08.142Z,28.9
2018-09-09T15:56:10.428Z,29.6
2018-09-09T16:01:12.669Z,28.700001
2018-09-09T16:06:14.999Z,29.5
2018-09-09T16:11:17.319Z,29.299999
2018-09-09T16:16:19.559Z,28.9
2018-09-09T16:21:21.859Z,30.9
2018-09-09T16:26:24.184Z,32.900002
2018-09-09T16:31:26.514Z,32.099998
2018-09-09T16:36:28.777Z,31.299999
2018-09-09T16:41:32.506Z,30.200001
2018-09-09T16:46:33.309Z,31.1
2018-09-09T16:51:35.725Z,32.200001
2018-09-09T16:56:37.968Z,33.099998
2018-09-09T17:01:40.260Z,33.5
2018-09-09T17:06:42.533Z,34.599998
2018-09-09T17:11:44.831Z,35.700001
2018-09-09T17:16:47.209Z,36
2018-09-09T17:21:49.502Z,36.900002
2018-09-09T17:26:51.764Z,39.099998
2018-09-09T17:31:54.033Z,38.5
2018-09-09T17:36:56.311Z,39.599998
2018-09-09T17:41:58.583Z,39.299999
2018-09-09T17:47:00.934Z,39.799999
2018-09-09T17:52:03.179Z,40.700001
2018-09-09T17:57:05.501Z,40.5
2018-09-09T18:02:07.842Z,42
2018-09-09T18:07:10.150Z,42.799999
2018-09-09T18:12:12.335Z,45.700001
2018-09-09T18:17:14.604Z,49.200001
2018-09-09T18:22:17.135Z,49.5
2018-09-09T18:27:20.378Z,50.099998
2018-09-09T18:32:21.542Z,49.099998
2018-09-09T18:37:23.953Z,50.200001
2018-09-09T18:42:26.128Z,50.400002
2018-09-09T18:47:28.518Z,51.200001
2018-09-09T18:52:30.808Z,54.799999
2018-09-09T18:57:32.980Z,51.700001
2018-09-09T19:02:35.335Z,52.599998
2018-09-09T19:07:37.505Z,53.099998
2018-09-09T19:12:39.884Z,55.5
2018-09-09T19:17:42.168Z,52.5
2018-09-09T19:22:44.421Z,52.400002
2018-09-09T19:27:46.816Z,53.099998
2018-09-09T19:32:49.092Z,53.599998
2018-09-09T19:42:53.765Z,56.200001
2018-09-09T19:47:56.039Z,53.099998
2018-09-09T19:52:58.355Z,52.599998
2018-09-09T19:58:00.631Z,54.299999
2018-09-09T20:03:02.863Z,53.099998
2018-09-09T20:08:05.103Z,54
2018-09-09T20:13:07.514Z,53.900002
2018-09-09T20:18:09.778Z,53.799999
2018-09-09T20:23:12.059Z,54.200001
2018-09-09T20:28:14.278Z,58
2018-09-09T20:33:16.526Z,55.799999
2018-09-09T20:38:18.925Z,58.400002
2018-09-09T20:43:21.249Z,57.099998
2018-09-09T20:48:26.609Z,61.599998
2018-09-09T20:53:25.821Z,63.900002
2018-09-09T20:58:28.067Z,64.800003
2018-09-09T21:03:30.449Z,66.300003
2018-09-09T21:08:32.672Z,66.599998
2018-09-09T21:13:34.920Z,67.900002
2018-09-09T21:18:37.222Z,69.199997
2018-09-09T21:23:39.488Z,67.800003
2018-09-09T21:28:41.828Z,68.900002
2018-09-09T21:33:44.176Z,68.900002
2018-09-09T21:38:46.547Z,70.300003
2018-09-09T21:43:48.715Z,71.5
2018-09-09T21:48:51.110Z,72.800003
2018-09-09T21:53:53.292Z,73.699997
2018-09-09T21:58:55.617Z,74.099998
2018-09-09T22:03:57.903Z,74.599998
2018-09-09T22:09:00.152Z,75.099998
2018-09-09T22:14:04.764Z,75.5
2018-09-09T22:19:04.816Z,76.099998
2018-09-09T22:24:07.039Z,77.199997
2018-09-09T22:29:09.468Z,77.599998
2018-09-09T22:34:11.697Z,78.300003
2018-09-09T22:39:13.893Z,78.800003
2018-09-09T22:44:16.254Z,79.400002
2018-09-09T22:49:18.632Z,80.199997
2018-09-09T22:54:20.819Z,80.699997
2018-09-09T22:59:23.142Z,80.800003
2018-09-09T23:04:29.767Z,82.199997
2018-09-09T23:09:27.725Z,83.5
2018-09-09T23:14:29.994Z,80.800003
2018-09-09T23:19:32.318Z,78.5
2018-09-09T23:24:34.639Z,78
2018-09-09T23:29:36.926Z,77.5
2018-09-09T23:34:39.192Z,77.099998
2018-09-09T23:39:41.504Z,76.5
2018-09-09T23:44:43.844Z,77.5
2018-09-09T23:49:46.093Z,77.400002
2018-09-09T23:54:49.769Z,77.400002
2018-09-09T23:59:50.702Z,77.800003
